메인 페이지
METAR-TAF:

METAR-TAF

공항 :

밴쿠버 국제공항

밴쿠버, 브리티시컬럼비아, 캐나다

위도: 49-11N, 경도: 123-10W, 고도: 3m

현재 날씨관측

예보는 41분 전, 23:00시(UTC)에 발표되었습니다.
9kt
온도 23°C
습도 69%
기압 1021 hPa
시정: 48.3km
고도 4500ft 상공 구름 조금

METAR: CYVR 222300Z 28009KT 30SM FEW045 23/17 A3015 RMK CF1 CF TR SLP210 DENSITY ALT 800FT

시각: 16:41 (23:41 UTC)

예보

예보는 3 시간 3분 전, 20:38시(UTC)에 발표되었습니다.
예보 대상 시간: 22일 21시부터 23일 24시까지 (UTC)
10kt
시정: 10km
고도 4000ft 상공 구름 조금
전환 중
23일 02시부터 23일 04시까지 (UTC)
남남서5kt
23일 0900시부터 (UTC)
6kt
시정: 10km
맑음
전환 중
23일 15시부터 23일 17시까지 (UTC)
10kt

TAF: CYVR 222038Z 2221/2324 28010KT P6SM FEW040 BECMG 2302/2304 21005KT FM230900 10006KT P6SM SKC BECMG 2315/2317 27010KT RMK NXT FCST BY 230000Z

4,000개 이상의 공항 관측 자료 및 예보 (METAR 및 TAF 보고).

지도상에서 검색 가능한 기상관측소가 노란 점과 빨간 점으로 표시되어 있습니다.

기상관측소 명을 보려면 표시 위로 마우스를 이동하세요.

날씨 관측과 예보를 보려면 클릭하세요.

지도 변경 : 확대하려면 엑스 표시가 있는 녹색 버튼, 축소하려면 빼기 표시가 있는 녹색 버튼, 다음 페이지의 지도를 보려면 녹색 화살표를 클릭하세요.


METAR-TAF: